TRA65T EHAM-LOWS
Flight info
| Callsign | TRA65T |
|---|---|
| Flight time | 0h 48m |
| Altitude | 37000 |
| Route | EDUPO Z739 MISGO DCT TIVUN DCT ESAMA DCT OSBIT DCT BOREP DCT ARMUT T703 ARBAX T108 OSTES T700 BADIT BADIT2R |
| Aircraft | A21N/M-SDE2E3FGHIJ1RWXY/LB1 |
Departure
| Time | 2026-05-05 07:57 |
|---|---|
| Airport | Amsterdam Airport Schiphol (EHAM) |
Arrival
| Time | 2026-05-05 08:45 |
|---|---|
| Airport | Salzburg Airport (LOWS) |
| Time | Latitude | Longitude | Altitude | Speed | Heading |
|---|---|---|---|---|---|
| 2026-05-05 07:25 | 52.30575 | 4.76696 | 4 ft | 0 kts | 215° |
| 2026-05-05 07:40 | 52.30579 | 4.76701 | 4 ft | 4 kts | 215° |
| 2026-05-05 07:40 | 52.30601 | 4.76726 | 4 ft | 4 kts | 215° |
| 2026-05-05 07:41 | 52.30619 | 4.76746 | 4 ft | 4 kts | 215° |
| 2026-05-05 07:41 | 52.30634 | 4.76768 | 4 ft | 4 kts | 269° |
| 2026-05-05 07:41 | 52.30627 | 4.76790 | 4 ft | 5 kts | 304° |
| 2026-05-05 07:41 | 52.30621 | 4.76804 | 4 ft | 2 kts | 304° |
| 2026-05-05 07:44 | 52.30628 | 4.76800 | 4 ft | 3 kts | 351° |
| 2026-05-05 07:44 | 52.30657 | 4.76875 | 4 ft | 12 kts | 85° |
| 2026-05-05 07:44 | 52.30639 | 4.77020 | 4 ft | 15 kts | 151° |
| 2026-05-05 07:45 | 52.30541 | 4.77096 | 4 ft | 16 kts | 149° |
| 2026-05-05 07:45 | 52.30472 | 4.77235 | 4 ft | 18 kts | 71° |
| 2026-05-05 07:45 | 52.30539 | 4.77414 | 4 ft | 19 kts | 57° |
| 2026-05-05 07:45 | 52.30629 | 4.77576 | 4 ft | 20 kts | 19° |
| 2026-05-05 07:46 | 52.30772 | 4.77595 | 4 ft | 21 kts | 1° |
| 2026-05-05 07:46 | 52.30925 | 4.77606 | 4 ft | 23 kts | 4° |
| 2026-05-05 07:46 | 52.31086 | 4.77625 | 4 ft | 24 kts | 4° |
| 2026-05-05 07:46 | 52.31256 | 4.77642 | 4 ft | 25 kts | 4° |
| 2026-05-05 07:47 | 52.31433 | 4.77648 | 4 ft | 26 kts | 343° |
| 2026-05-05 07:47 | 52.31558 | 4.77470 | 4 ft | 23 kts | 294° |
| 2026-05-05 07:47 | 52.31571 | 4.77214 | 4 ft | 23 kts | 265° |
| 2026-05-05 07:47 | 52.31563 | 4.76942 | 4 ft | 25 kts | 267° |
| 2026-05-05 07:48 | 52.31555 | 4.76655 | 4 ft | 26 kts | 268° |
| 2026-05-05 07:48 | 52.31544 | 4.76399 | 5 ft | 22 kts | 266° |
| 2026-05-05 07:48 | 52.31534 | 4.76145 | 5 ft | 23 kts | 267° |
| 2026-05-05 07:48 | 52.31526 | 4.75877 | 4 ft | 24 kts | 267° |
| 2026-05-05 07:49 | 52.31516 | 4.75604 | 4 ft | 25 kts | 266° |
| 2026-05-05 07:49 | 52.31506 | 4.75323 | 4 ft | 24 kts | 267° |
| 2026-05-05 07:49 | 52.31498 | 4.75050 | 4 ft | 24 kts | 267° |
| 2026-05-05 07:49 | 52.31490 | 4.74781 | 4 ft | 24 kts | 267° |
| 2026-05-05 07:50 | 52.31479 | 4.74510 | 5 ft | 24 kts | 266° |
| 2026-05-05 07:50 | 52.31507 | 4.74303 | 5 ft | 19 kts | 344° |
| 2026-05-05 07:50 | 52.31644 | 4.74310 | 5 ft | 20 kts | 4° |
| 2026-05-05 07:50 | 52.31789 | 4.74325 | 4 ft | 22 kts | 2° |
| 2026-05-05 07:51 | 52.31936 | 4.74332 | 4 ft | 19 kts | 1° |
| 2026-05-05 07:51 | 52.32029 | 4.74254 | 4 ft | 15 kts | 280° |
| 2026-05-05 07:51 | 52.32036 | 4.74071 | 4 ft | 17 kts | 272° |
| 2026-05-05 07:51 | 52.32042 | 4.73872 | 4 ft | 18 kts | 273° |
| 2026-05-05 07:52 | 52.32049 | 4.73657 | 5 ft | 20 kts | 273° |
| 2026-05-05 07:52 | 52.32063 | 4.73429 | 5 ft | 21 kts | 291° |
| 2026-05-05 07:52 | 52.32161 | 4.73256 | 4 ft | 22 kts | 319° |
| 2026-05-05 07:52 | 52.32281 | 4.73084 | 4 ft | 23 kts | 319° |
| 2026-05-05 07:53 | 52.32407 | 4.72907 | 4 ft | 24 kts | 319° |
| 2026-05-05 07:53 | 52.32532 | 4.72732 | 4 ft | 24 kts | 319° |
| 2026-05-05 07:53 | 52.32658 | 4.72555 | 5 ft | 25 kts | 317° |
| 2026-05-05 07:53 | 52.32775 | 4.72340 | 5 ft | 26 kts | 312° |
| 2026-05-05 07:54 | 52.32897 | 4.72114 | 5 ft | 27 kts | 311° |
| 2026-05-05 07:54 | 52.33026 | 4.71877 | 5 ft | 28 kts | 311° |
| 2026-05-05 07:54 | 52.33145 | 4.71634 | 5 ft | 25 kts | 285° |
| 2026-05-05 07:54 | 52.33080 | 4.71422 | 5 ft | 22 kts | 220° |
| 2026-05-05 07:55 | 52.32961 | 4.71253 | 4 ft | 23 kts | 221° |
| 2026-05-05 07:55 | 52.32865 | 4.71086 | 4 ft | 19 kts | 254° |
| 2026-05-05 07:55 | 52.32879 | 4.70915 | 3 ft | 13 kts | 320° |
| 2026-05-05 07:55 | 52.32945 | 4.70898 | 3 ft | 0 kts | 4° |
| 2026-05-05 07:56 | 52.32991 | 4.70904 | 2 ft | 30 kts | 4° |
| 2026-05-05 07:56 | 52.33435 | 4.70944 | 3 ft | 94 kts | 4° |
| 2026-05-05 07:56 | 52.34252 | 4.71021 | 3 ft | 143 kts | 4° |
| 2026-05-05 07:56 | 52.35298 | 4.71089 | 336 ft | 152 kts | 4° |
| 2026-05-05 07:57 | 52.36366 | 4.71206 | 859 ft | 156 kts | 6° |
| 2026-05-05 07:57 | 52.37474 | 4.71323 | 1372 ft | 165 kts | 6° |
| 2026-05-05 07:57 | 52.38677 | 4.71436 | 1808 ft | 182 kts | 6° |
| 2026-05-05 07:57 | 52.40005 | 4.71562 | 2279 ft | 203 kts | 6° |
| 2026-05-05 07:58 | 52.41501 | 4.71743 | 2684 ft | 228 kts | 10° |
| 2026-05-05 07:58 | 52.43059 | 4.72564 | 3240 ft | 243 kts | 27° |
| 2026-05-05 07:58 | 52.44568 | 4.73975 | 4058 ft | 249 kts | 30° |
| 2026-05-05 07:58 | 52.45888 | 4.75788 | 4868 ft | 257 kts | 51° |
| 2026-05-05 07:59 | 52.46676 | 4.78444 | 5617 ft | 266 kts | 76° |
| 2026-05-05 07:59 | 52.46696 | 4.81486 | 6393 ft | 272 kts | 102° |
| 2026-05-05 07:59 | 52.45911 | 4.84329 | 7129 ft | 278 kts | 125° |
| 2026-05-05 07:59 | 52.44687 | 4.86803 | 7903 ft | 282 kts | 130° |
| 2026-05-05 08:00 | 52.43401 | 4.89266 | 8703 ft | 287 kts | 130° |
| 2026-05-05 08:00 | 52.42101 | 4.91800 | 9480 ft | 293 kts | 130° |
| 2026-05-05 08:00 | 52.40793 | 4.94392 | 10225 ft | 301 kts | 129° |
| 2026-05-05 08:00 | 52.39424 | 4.97135 | 10599 ft | 321 kts | 129° |
| 2026-05-05 08:01 | 52.37979 | 5.00048 | 10986 ft | 339 kts | 129° |
| 2026-05-05 08:01 | 52.36476 | 5.03077 | 11644 ft | 346 kts | 129° |
| 2026-05-05 08:01 | 52.34947 | 5.06162 | 12379 ft | 351 kts | 129° |
| 2026-05-05 08:01 | 52.33390 | 5.09270 | 13125 ft | 355 kts | 131° |
| 2026-05-05 08:02 | 52.31747 | 5.12309 | 13913 ft | 358 kts | 132° |
| 2026-05-05 08:02 | 52.30073 | 5.15354 | 14560 ft | 363 kts | 133° |
| 2026-05-05 08:02 | 52.28383 | 5.18415 | 15279 ft | 364 kts | 133° |
| 2026-05-05 08:02 | 52.26676 | 5.21499 | 15969 ft | 368 kts | 133° |
| 2026-05-05 08:03 | 52.24954 | 5.24635 | 16594 ft | 373 kts | 132° |
| 2026-05-05 08:03 | 52.23365 | 5.28010 | 17235 ft | 377 kts | 126° |
| 2026-05-05 08:03 | 52.22344 | 5.30372 | 17657 ft | 380 kts | 126° |
| 2026-05-05 08:03 | 52.20819 | 5.33916 | 18277 ft | 384 kts | 127° |
| 2026-05-05 08:04 | 52.19295 | 5.37444 | 18854 ft | 386 kts | 127° |
| 2026-05-05 08:04 | 52.17739 | 5.41033 | 19416 ft | 389 kts | 127° |
| 2026-05-05 08:04 | 52.16170 | 5.44632 | 19990 ft | 391 kts | 127° |
| 2026-05-05 08:04 | 52.14589 | 5.48256 | 20510 ft | 394 kts | 127° |
| 2026-05-05 08:05 | 52.12998 | 5.51905 | 21052 ft | 397 kts | 127° |
| 2026-05-05 08:05 | 52.11394 | 5.55563 | 21568 ft | 400 kts | 127° |
| 2026-05-05 08:05 | 52.09774 | 5.59262 | 22084 ft | 403 kts | 127° |
| 2026-05-05 08:05 | 52.08142 | 5.62985 | 22586 ft | 406 kts | 127° |
| 2026-05-05 08:06 | 52.06489 | 5.66724 | 23075 ft | 409 kts | 129° |
| 2026-05-05 08:06 | 52.04676 | 5.70301 | 23563 ft | 411 kts | 133° |
| 2026-05-05 08:06 | 52.02796 | 5.73814 | 23990 ft | 414 kts | 134° |
| 2026-05-05 08:06 | 52.00894 | 5.77348 | 24419 ft | 417 kts | 134° |
| 2026-05-05 08:07 | 51.98979 | 5.80902 | 24838 ft | 419 kts | 134° |
| 2026-05-05 08:07 | 51.97057 | 5.84481 | 25248 ft | 422 kts | 134° |
| 2026-05-05 08:07 | 51.95121 | 5.88093 | 25640 ft | 425 kts | 134° |
| 2026-05-05 08:07 | 51.93171 | 5.91697 | 26016 ft | 428 kts | 135° |
| 2026-05-05 08:08 | 51.91198 | 5.95336 | 26395 ft | 431 kts | 134° |
| 2026-05-05 08:08 | 51.89232 | 5.99016 | 26757 ft | 433 kts | 134° |
| 2026-05-05 08:08 | 51.87259 | 6.02710 | 27154 ft | 435 kts | 134° |
| 2026-05-05 08:08 | 51.85274 | 6.06410 | 27526 ft | 437 kts | 135° |
| 2026-05-05 08:09 | 51.83271 | 6.10117 | 27875 ft | 438 kts | 135° |
| 2026-05-05 08:09 | 51.81246 | 6.13821 | 28217 ft | 441 kts | 135° |
| 2026-05-05 08:09 | 51.79213 | 6.17536 | 28551 ft | 443 kts | 136° |
| 2026-05-05 08:09 | 51.77168 | 6.21281 | 28880 ft | 445 kts | 136° |
| 2026-05-05 08:10 | 51.75116 | 6.25034 | 29212 ft | 447 kts | 136° |
| 2026-05-05 08:10 | 51.73052 | 6.28796 | 29526 ft | 449 kts | 136° |
| 2026-05-05 08:10 | 51.70975 | 6.32575 | 29816 ft | 451 kts | 136° |
| 2026-05-05 08:10 | 51.68888 | 6.36377 | 30073 ft | 454 kts | 136° |
| 2026-05-05 08:11 | 51.66791 | 6.40198 | 30336 ft | 456 kts | 136° |
| 2026-05-05 08:11 | 51.64680 | 6.44016 | 30660 ft | 456 kts | 137° |
| 2026-05-05 08:11 | 51.62576 | 6.47822 | 31019 ft | 454 kts | 137° |
| 2026-05-05 08:11 | 51.60486 | 6.51603 | 31495 ft | 451 kts | 137° |
| 2026-05-05 08:12 | 51.58409 | 6.55359 | 31922 ft | 448 kts | 137° |
| 2026-05-05 08:12 | 51.56348 | 6.59086 | 32314 ft | 446 kts | 138° |
| 2026-05-05 08:12 | 51.54348 | 6.62900 | 32662 ft | 448 kts | 133° |
| 2026-05-05 08:12 | 51.52523 | 6.66967 | 32988 ft | 449 kts | 131° |
| 2026-05-05 08:13 | 51.50732 | 6.71069 | 33319 ft | 448 kts | 131° |
| 2026-05-05 08:13 | 51.48936 | 6.75140 | 33610 ft | 447 kts | 132° |
| 2026-05-05 08:13 | 51.47125 | 6.79203 | 33808 ft | 448 kts | 132° |
| 2026-05-05 08:13 | 51.45308 | 6.83256 | 33999 ft | 449 kts | 132° |
| 2026-05-05 08:14 | 51.43478 | 6.87321 | 34211 ft | 449 kts | 132° |
| 2026-05-05 08:14 | 51.41652 | 6.91372 | 34442 ft | 448 kts | 132° |
| 2026-05-05 08:14 | 51.39827 | 6.95414 | 34669 ft | 448 kts | 132° |
| 2026-05-05 08:14 | 51.37996 | 6.99454 | 34882 ft | 449 kts | 132° |
| 2026-05-05 08:15 | 51.34287 | 7.07629 | 34925 ft | 458 kts | 131° |
| 2026-05-05 08:15 | 51.30501 | 7.15936 | 34899 ft | 466 kts | 131° |
| 2026-05-05 08:16 | 51.26664 | 7.24347 | 34889 ft | 470 kts | 131° |
| 2026-05-05 08:16 | 51.22809 | 7.32764 | 34893 ft | 470 kts | 131° |
| 2026-05-05 08:17 | 51.18944 | 7.41187 | 34895 ft | 470 kts | 131° |
| 2026-05-05 08:17 | 51.15072 | 7.49582 | 34897 ft | 470 kts | 131° |
| 2026-05-05 08:18 | 51.11198 | 7.57959 | 34905 ft | 470 kts | 131° |
| 2026-05-05 08:18 | 51.07303 | 7.66348 | 34893 ft | 471 kts | 131° |
| 2026-05-05 08:19 | 51.03450 | 7.74647 | 34893 ft | 469 kts | 132° |
| 2026-05-05 08:19 | 49.72245 | 12.32341 | 34174 ft | 469 kts | 142° |
| 2026-05-05 08:19 | 49.70154 | 12.35118 | 34682 ft | 451 kts | 146° |
| 2026-05-05 08:20 | 49.67695 | 12.37986 | 34753 ft | 438 kts | 147° |
| 2026-05-05 08:20 | 49.65280 | 12.40812 | 34796 ft | 434 kts | 147° |
| 2026-05-05 08:20 | 49.60459 | 12.46433 | 34829 ft | 433 kts | 147° |
| 2026-05-05 08:21 | 49.55660 | 12.51966 | 34323 ft | 429 kts | 148° |
| 2026-05-05 08:21 | 49.53235 | 12.54715 | 33240 ft | 438 kts | 148° |
| 2026-05-05 08:21 | 49.50757 | 12.57512 | 32211 ft | 443 kts | 147° |
| 2026-05-05 08:22 | 49.48283 | 12.60313 | 31539 ft | 439 kts | 147° |
| 2026-05-05 08:22 | 49.45837 | 12.63087 | 30775 ft | 435 kts | 147° |
| 2026-05-05 08:22 | 49.43447 | 12.65900 | 30154 ft | 432 kts | 142° |
| 2026-05-05 08:22 | 49.41237 | 12.69010 | 29572 ft | 428 kts | 139° |
| 2026-05-05 08:23 | 49.39094 | 12.72147 | 28968 ft | 424 kts | 139° |
| 2026-05-05 08:23 | 49.36986 | 12.75273 | 28426 ft | 419 kts | 137° |
| 2026-05-05 08:23 | 49.35062 | 12.78607 | 27923 ft | 415 kts | 133° |
| 2026-05-05 08:23 | 49.33230 | 12.81983 | 27428 ft | 409 kts | 132° |
| 2026-05-05 08:24 | 49.31431 | 12.85316 | 26955 ft | 403 kts | 132° |
| 2026-05-05 08:24 | 49.29654 | 12.88603 | 26468 ft | 398 kts | 132° |
| 2026-05-05 08:24 | 49.27897 | 12.91840 | 25980 ft | 393 kts | 132° |
| 2026-05-05 08:24 | 49.26153 | 12.95036 | 25508 ft | 389 kts | 132° |
| 2026-05-05 08:25 | 49.24342 | 12.98057 | 25048 ft | 382 kts | 141° |
| 2026-05-05 08:25 | 49.22159 | 13.00254 | 24576 ft | 372 kts | 158° |
| 2026-05-05 08:25 | 49.19702 | 13.01302 | 24103 ft | 364 kts | 176° |
| 2026-05-05 08:25 | 49.17200 | 13.01171 | 23634 ft | 358 kts | 192° |
| 2026-05-05 08:26 | 49.14860 | 12.99988 | 23145 ft | 354 kts | 205° |
| 2026-05-05 08:26 | 49.12654 | 12.98342 | 22659 ft | 352 kts | 207° |
| 2026-05-05 08:26 | 49.10470 | 12.96674 | 22166 ft | 351 kts | 207° |
| 2026-05-05 08:26 | 49.08286 | 12.95029 | 21689 ft | 349 kts | 206° |
| 2026-05-05 08:27 | 49.06100 | 12.93411 | 21218 ft | 348 kts | 206° |
| 2026-05-05 08:27 | 49.03922 | 12.91814 | 20756 ft | 347 kts | 206° |
| 2026-05-05 08:27 | 49.01752 | 12.90233 | 20297 ft | 346 kts | 206° |
| 2026-05-05 08:27 | 48.99584 | 12.88656 | 19862 ft | 344 kts | 206° |
| 2026-05-05 08:28 | 48.97432 | 12.87093 | 19445 ft | 342 kts | 205° |
| 2026-05-05 08:28 | 48.95281 | 12.85540 | 19030 ft | 342 kts | 205° |
| 2026-05-05 08:28 | 48.93136 | 12.83997 | 18619 ft | 342 kts | 205° |
| 2026-05-05 08:28 | 48.90986 | 12.82448 | 18212 ft | 342 kts | 205° |
| 2026-05-05 08:29 | 48.88868 | 12.80929 | 17771 ft | 342 kts | 205° |
| 2026-05-05 08:29 | 48.86687 | 12.79365 | 17334 ft | 341 kts | 205° |
| 2026-05-05 08:29 | 48.84537 | 12.77821 | 16907 ft | 341 kts | 205° |
| 2026-05-05 08:30 | 48.80262 | 12.74765 | 16090 ft | 338 kts | 205° |
| 2026-05-05 08:30 | 48.78145 | 12.73254 | 15712 ft | 335 kts | 205° |
| 2026-05-05 08:30 | 48.76042 | 12.71754 | 15347 ft | 333 kts | 205° |
| 2026-05-05 08:30 | 48.73950 | 12.70264 | 14974 ft | 331 kts | 205° |
| 2026-05-05 08:31 | 48.71859 | 12.68831 | 14592 ft | 329 kts | 200° |
| 2026-05-05 08:31 | 48.69628 | 12.68162 | 14211 ft | 328 kts | 180° |
| 2026-05-05 08:31 | 48.67371 | 12.68536 | 13867 ft | 326 kts | 171° |
| 2026-05-05 08:31 | 48.65148 | 12.69165 | 13500 ft | 324 kts | 170° |
| 2026-05-05 08:32 | 48.62942 | 12.69797 | 13121 ft | 322 kts | 170° |
| 2026-05-05 08:32 | 48.60743 | 12.70403 | 12755 ft | 320 kts | 171° |
| 2026-05-05 08:32 | 48.58554 | 12.70963 | 12401 ft | 318 kts | 172° |
| 2026-05-05 08:32 | 48.56380 | 12.71430 | 12055 ft | 315 kts | 173° |
| 2026-05-05 08:33 | 48.54213 | 12.71882 | 11718 ft | 313 kts | 173° |
| 2026-05-05 08:33 | 48.52071 | 12.72331 | 11384 ft | 310 kts | 172° |
| 2026-05-05 08:33 | 48.49943 | 12.72781 | 11054 ft | 308 kts | 172° |
| 2026-05-05 08:33 | 48.47832 | 12.73227 | 10711 ft | 306 kts | 172° |
| 2026-05-05 08:34 | 48.45733 | 12.73674 | 10404 ft | 300 kts | 173° |
| 2026-05-05 08:34 | 48.43713 | 12.74102 | 10219 ft | 288 kts | 172° |
| 2026-05-05 08:34 | 48.41766 | 12.74513 | 10078 ft | 279 kts | 172° |
| 2026-05-05 08:34 | 48.39861 | 12.74933 | 9866 ft | 274 kts | 170° |
| 2026-05-05 08:35 | 48.38005 | 12.75539 | 9589 ft | 272 kts | 167° |
| 2026-05-05 08:35 | 48.36156 | 12.76220 | 9148 ft | 278 kts | 167° |
| 2026-05-05 08:35 | 48.34282 | 12.76912 | 8901 ft | 276 kts | 167° |
| 2026-05-05 08:35 | 48.32426 | 12.77594 | 8605 ft | 273 kts | 167° |
| 2026-05-05 08:36 | 48.30588 | 12.78266 | 8331 ft | 270 kts | 167° |
| 2026-05-05 08:36 | 48.28767 | 12.78929 | 8041 ft | 268 kts | 167° |
| 2026-05-05 08:36 | 48.26964 | 12.79585 | 7753 ft | 266 kts | 167° |
| 2026-05-05 08:36 | 48.25171 | 12.80236 | 7477 ft | 264 kts | 167° |
| 2026-05-05 08:37 | 48.23392 | 12.80882 | 7183 ft | 262 kts | 167° |
| 2026-05-05 08:37 | 48.21622 | 12.81523 | 6893 ft | 261 kts | 167° |
| 2026-05-05 08:37 | 48.19864 | 12.82160 | 6593 ft | 259 kts | 167° |
| 2026-05-05 08:37 | 48.18112 | 12.82793 | 6302 ft | 258 kts | 167° |
| 2026-05-05 08:38 | 48.16376 | 12.83421 | 6000 ft | 257 kts | 167° |
| 2026-05-05 08:38 | 48.14643 | 12.84048 | 5701 ft | 256 kts | 166° |
| 2026-05-05 08:38 | 48.12915 | 12.84674 | 5398 ft | 254 kts | 166° |
| 2026-05-05 08:38 | 48.11219 | 12.85285 | 5190 ft | 246 kts | 168° |
| 2026-05-05 08:39 | 48.09549 | 12.85445 | 5026 ft | 236 kts | 173° |
| 2026-05-05 08:39 | 48.07983 | 12.86051 | 4858 ft | 232 kts | 161° |
| 2026-05-05 08:39 | 48.06446 | 12.86783 | 4685 ft | 231 kts | 162° |
| 2026-05-05 08:39 | 48.04908 | 12.87452 | 4510 ft | 228 kts | 163° |
| 2026-05-05 08:40 | 48.03376 | 12.88082 | 4331 ft | 228 kts | 163° |
| 2026-05-05 08:40 | 48.01841 | 12.88692 | 4152 ft | 228 kts | 165° |
| 2026-05-05 08:40 | 48.00292 | 12.89246 | 3979 ft | 229 kts | 168° |
| 2026-05-05 08:40 | 47.98703 | 12.89438 | 3807 ft | 230 kts | 178° |
| 2026-05-05 08:41 | 47.97006 | 12.89612 | 3984 ft | 260 kts | 171° |
| 2026-05-05 08:41 | 47.95225 | 12.90210 | 4052 ft | 262 kts | 161° |
| 2026-05-05 08:41 | 47.93602 | 12.91227 | 3991 ft | 246 kts | 149° |
| 2026-05-05 08:41 | 47.92091 | 12.92311 | 3746 ft | 236 kts | 160° |
| 2026-05-05 08:42 | 47.90664 | 12.93232 | 3523 ft | 213 kts | 155° |
| 2026-05-05 08:42 | 47.89338 | 12.94063 | 3228 ft | 201 kts | 155° |
| 2026-05-05 08:42 | 47.88095 | 12.94844 | 2956 ft | 187 kts | 155° |
| 2026-05-05 08:42 | 47.86941 | 12.95573 | 2700 ft | 172 kts | 155° |
| 2026-05-05 08:43 | 47.85920 | 12.96219 | 2469 ft | 147 kts | 155° |
| 2026-05-05 08:43 | 47.85003 | 12.96801 | 2311 ft | 142 kts | 155° |
| 2026-05-05 08:43 | 47.84101 | 12.97373 | 2170 ft | 140 kts | 156° |
| 2026-05-05 08:43 | 47.83204 | 12.97942 | 2022 ft | 140 kts | 156° |
| 2026-05-05 08:44 | 47.82312 | 12.98508 | 1874 ft | 139 kts | 156° |
| 2026-05-05 08:44 | 47.81422 | 12.99073 | 1698 ft | 139 kts | 156° |
| 2026-05-05 08:44 | 47.80535 | 12.99633 | 1523 ft | 138 kts | 158° |
| 2026-05-05 08:44 | 47.79949 | 12.99985 | 1431 ft | 134 kts | 154° |
| 2026-05-05 08:45 | 47.79247 | 13.00454 | 1426 ft | 74 kts | 156° |
| 2026-05-05 08:45 | 47.78847 | 13.00702 | 1425 ft | 52 kts | 158° |
| 2026-05-05 08:45 | 47.78604 | 13.00825 | 1425 ft | 18 kts | 183° |
| 2026-05-05 08:45 | 47.78527 | 13.00700 | 1425 ft | 17 kts | 258° |
| 2026-05-05 08:46 | 47.78591 | 13.00594 | 1425 ft | 16 kts | 336° |
| 2026-05-05 08:46 | 47.78694 | 13.00527 | 1425 ft | 16 kts | 336° |
| 2026-05-05 08:46 | 47.78801 | 13.00457 | 1425 ft | 18 kts | 337° |
| 2026-05-05 08:46 | 47.78920 | 13.00383 | 1425 ft | 19 kts | 334° |
| 2026-05-05 08:47 | 47.78955 | 13.00249 | 1425 ft | 14 kts | 272° |
| 2026-05-05 08:47 | 47.78997 | 13.00130 | 1425 ft | 14 kts | 333° |
| 2026-05-05 08:47 | 47.79071 | 13.00076 | 1425 ft | 11 kts | 315° |
| 2026-05-05 08:47 | 47.79088 | 12.99977 | 1425 ft | 6 kts | 282° |
| 2026-05-05 08:48 | 47.79091 | 12.99961 | 1425 ft | 0 kts | 282° |